»·PEaware :: N65KA KRKS-18V

N65KA :: KRKS-18V

FLIGHT INFORMATION

Flight Status: Arrived
Operator: Privately registered:
United States
More flights under this callsign
Pilot: Harm S. (10775)
Aircraft: BEECH AIRCRAFT SUPER KING AIR 350
(B350)
More flights by this aircraft type
Origin: KRKS Rock Springs-Sweetwater
United States
Destination: 18V Platte Valley
United States
More flights between these airports :: More routes between these airports
Route: +CKW V4 GLL
File this flight plan on PilotEdge
Remarks:
Altitude:
(Current/Filed)
17,000ft
Speed:
(Current/Filed)
290kts
Departed: 24-May-20 07:26 AM
Arrived: 24-May-20 08:24 AM
Distance/Time
Traveled:
217nm/0:58
Distance/Time
To Go:
Arrived

Flight Plot

Page will automatically refresh every two minutes.

Flight plan parsing failed; only flown route is shown


Map Options




Map Legend


Flown Route
Filed Route
Departure Airport
Arrival Airport
Navaid (VOR, NDB)
Fix

Horizontal Profiles

Position Reports

Time Latitude Longitude Heading Altitude Ground
Speed
24-May-20 07:23 41.598502 -109.081849 206 6746ft 0kts
24-May-20 07:24 41.598501 -109.081849 207 6746ft 0kts
24-May-20 07:25 41.597786 -109.081959 157 6746ft 12kts
24-May-20 07:26 41.596079 -109.073084 103 6746ft 121kts
24-May-20 07:27 41.591909 -109.019021 55 8969ft 157kts
24-May-20 07:28 41.617430 -108.972474 73 11197ft 164kts
24-May-20 07:28 41.622637 -108.921578 80 12847ft 170kts
24-May-20 07:30 41.630149 -108.847125 80 15183ft 178kts
24-May-20 07:31 41.659457 -108.782300 50 15477ft 242kts
24-May-20 07:31 41.696202 -108.718428 50 15463ft 272kts
24-May-20 07:33 41.728899 -108.605272 67 15456ft 288kts
24-May-20 07:33 41.753273 -108.521251 67 15457ft 292kts
24-May-20 07:34 41.764771 -108.415689 90 16024ft 285kts
24-May-20 07:35 41.763139 -108.310536 91 17011ft 284kts
24-May-20 07:36 41.761980 -108.199598 91 17000ft 307kts
24-May-20 07:37 41.760800 -108.083637 90 16979ft 314kts
24-May-20 07:38 41.759579 -107.965914 91 16964ft 318kts
24-May-20 07:39 41.758247 -107.847197 91 16963ft 320kts
24-May-20 07:40 41.756799 -107.728285 91 16965ft 320kts
24-May-20 07:41 41.755177 -107.608726 92 17010ft 320kts
24-May-20 07:42 41.736359 -107.492774 107 17010ft 320kts
24-May-20 07:43 41.711020 -107.378470 107 17009ft 320kts
24-May-20 07:44 41.685999 -107.264024 108 17009ft 320kts
24-May-20 07:45 41.661025 -107.149923 108 17009ft 320kts
24-May-20 07:46 41.635910 -107.035809 109 17009ft 320kts
24-May-20 07:47 41.610715 -106.921840 109 16986ft 321kts
24-May-20 07:48 41.585314 -106.807544 109 16960ft 321kts
24-May-20 07:49 41.559765 -106.693204 110 16955ft 321kts
24-May-20 07:50 41.534093 -106.578912 110 16955ft 321kts
24-May-20 07:51 41.508327 -106.464791 110 16955ft 321kts
24-May-20 07:52 41.482468 -106.350939 110 16956ft 321kts
24-May-20 07:53 41.456417 -106.236809 111 16952ft 321kts
24-May-20 07:54 41.430321 -106.123092 111 16955ft 321kts
24-May-20 07:55 41.404104 -106.009472 111 16966ft 321kts
24-May-20 07:56 41.377823 -105.896036 111 16974ft 320kts
24-May-20 07:57 41.351419 -105.782650 111 16977ft 320kts
24-May-20 07:58 41.310481 -105.681454 136 16982ft 308kts
24-May-20 07:59 41.251675 -105.598935 138 16981ft 307kts
24-May-20 08:00 41.193004 -105.516196 137 16981ft 307kts
24-May-20 08:01 41.134817 -105.433793 137 16981ft 307kts
24-May-20 08:02 41.076365 -105.351219 137 16981ft 307kts
24-May-20 08:03 41.018007 -105.269012 138 16977ft 306kts
24-May-20 08:04 40.959734 -105.187165 138 16977ft 305kts
24-May-20 08:05 40.901643 -105.105792 138 16979ft 305kts
24-May-20 08:06 40.843230 -105.024275 138 16537ft 300kts
24-May-20 08:07 40.787778 -104.946872 137 15023ft 281kts
24-May-20 08:08 40.735351 -104.873891 136 13521ft 270kts
24-May-20 08:09 40.685266 -104.804388 135 12046ft 263kts
24-May-20 08:10 40.634534 -104.734119 134 10970ft 248kts
24-May-20 08:11 40.582540 -104.680679 149 10489ft 240kts
24-May-20 08:12 40.519982 -104.644069 173 9657ft 248kts
24-May-20 08:13 40.452257 -104.659110 196 9096ft 253kts
24-May-20 08:14 40.385268 -104.692160 211 8396ft 265kts
24-May-20 08:15 40.319996 -104.740309 212 7576ft 270kts
24-May-20 08:16 40.258672 -104.786443 212 6739ft 234kts
24-May-20 08:17 40.200372 -104.802110 183 6477ft 203kts
24-May-20 08:18 40.145512 -104.804329 181 6362ft 193kts
24-May-20 08:19 40.115053 -104.757543 106 6155ft 181kts
24-May-20 08:20 40.080187 -104.727949 167 5826ft 144kts
24-May-20 08:21 40.067989 -104.695478 26 5531ft 122kts
24-May-20 08:22 40.098560 -104.700607 345 4973ft 83kts
24-May-20 08:23 40.105055 -104.702340 23 4974ft 7kts
24-May-20 08:24 40.107239 -104.701111 21 4964ft 0kts
24-May-20 08:25 40.108735 -104.699919 357 4962ft 0kts
24-May-20 08:26 40.108735 -104.699919 357 4962ft 0kts
24-May-20 08:27 40.108735 -104.699919 357 4962ft 0kts
24-May-20 08:28 40.108735 -104.699919 357 4962ft 0kts
24-May-20 08:29 40.108735 -104.699919 357 4962ft 0kts
24-May-20 08:30 40.108735 -104.699919 357 4962ft 0kts
24-May-20 08:31 40.108735 -104.699919 357 4962ft 0kts
24-May-20 08:32 40.108735 -104.699919 357 4962ft 0kts
24-May-20 08:33 40.108735 -104.699919 357 4962ft 0kts
24-May-20 08:34 40.108735 -104.699919 357 4962ft 0kts
24-May-20 08:35 40.108735 -104.699919 357 4962ft 0kts
24-May-20 08:36 40.108735 -104.699919 357 4962ft 0kts
24-May-20 08:37 40.108735 -104.699919 357 4962ft 0kts
24-May-20 08:38 40.108735 -104.699919 357 4962ft 0kts

Navigation Log

Ident Type
Flight plan parsing failed, navigation log unavailable